KMRF/MRF METAR and TAF weather

Enter ICAO airport designator
Station Type Date Time Source
KMRF METAR 2019/02/23 22:56 UTC NOAA

KMRF 232256Z AUTO 29014G19KT 10SM CLR 12/M16 A3016 RMK AO2 PK WND 29029/2203 SLP200 T01171156


Station Type Date Time Source
KMRF Decoded METAR 2019/02/23 22:56 UTC NOAA

Marfa, TX, United States (KMRF) 30-22N 104-01W 1481M
Feb 23, 2019 - 05:56 PM EST / 2019.02.23 2256 UTC
Wind: from the WNW (290 degrees) at 16 MPH (14 KT) gusting to 22 MPH (19 KT):0
Visibility: 10 mile(s):0
Sky conditions: clear
Temperature: 53.1 F (11.7 C)
Dew Point: 3.9 F (-15.6 C)
Relative Humidity: 13%
Pressure (altimeter): 30.16 in. Hg (1021 hPa)
ob: KMRF 232256Z AUTO 29014G19KT 10SM CLR 12/M16 A3016 RMK AO2 PK WND 29029/2203 SLP200 T01171156
cycle: 23

Station Type Date Time Source
KMRF TAF UTC NOAA

Error!


Example: see airport list